Harrisburg, Missouri
Current Conditions -  °F | °C
As of 12:55 AM on Thursday 23 Oct 2014 (Local Time) from KVER Reporting Station
Haze Haze  
Wind Chill: 46°   Ceiling: Unl
Heat Index: 48°   Visibility: 2.5mi
Dew Point: 42°   Wind: 6mph
Humidity: 77%   Direction: 130°SE
Pressure: 30.16"   Gusts: NA
Location:  39.14°N, 92.46°W
Report Text: KVER 230555Z AUTO 13005KT 2 1/2SM HZ CLR 09/05 A3016 RMK AO2 T00910053 10241 20038 402410038
Loading
Personal Weather Stations






























Interactive Weather Map
Tropical Storm Tracking
New forecast layout! Learn more

10-Day Weather Forecast

Advertisements
Track Severe Weather on mobile